Breckenridge, TX (76424)

10:58 PM CST on January 21, 2017 (GMT -0600)
| | Change Station
Active Advisory: Wind Advisory Active Notice: Public Information Statement

Elev -9999 ft 0.00 °N, 0.00 °E | Updated

Clear
Clear
°F
Feels Like °F
N
Wind Variable Wind from North
Gusts mph

Today
High -- | Low -- °F
--% Chance of Precip.
Yesterday
High -- | Low -- °F
Precip. -- in
Pressure 29.47 in
Visibility 10.0 miles
Clouds Clear
Dew Point Not available.
Humidity Not available.
Rainfall --
Snow Depth Not available.
7:36 AM 5:58 PM
Waning Crescent, 29% visible
METAR KBKD 220435Z AUTO 24011G17KT 10SM CLR 14/00 A2947 RMK AO2 T01410002
Pressure 29.47 in
Visibility 10.0 miles
Clouds Clear
Dew Point Not available.
Humidity Not available.
Rainfall --
Snow Depth Not available.
7:36 AM 5:58 PM
Waning Crescent, 29% visible
METAR KBKD 220435Z AUTO 24011G17KT 10SM CLR 14/00 A2947 RMK AO2 T01410002

Get Your Daily Forecast Email!

Thanks for signing up!

Be on the lookout for a verification email in your inbox.

You'll start receiving the daily forecast at 8 AM.

×

10-Day Weather Forecast

Almanac

Astronomy

Jan. 21, 2017 Rise Set
Actual Time
Civil Twilight
Nautical Twilight
Astronomical Twilight
Moon
Length of Visible Light
Length of Day
Tomorrow will be .
, % of the Moon is Illuminated

Today's Extremes

State Highs State Lows

Community

WunderPhotos

Upload Photos

1,962,540 photos uploaded!

WunderBlog® & News

Nearby

Air Quality

  Air Quality AQ Index Pollutant
Not available.

Snow Depth

Station Depth Elevation

Earthquake Activity

City Distance Mag. Time & Date
Minimum magnitude displayed is 2.5.

Coastal Water Temperatures

Place Temperature

Stations

Nearby Weather Stations

Station Location Temp. Windchill Dew Point Humidity Wind Precip. Elev Updated Type
                   

Watches & Warnings

Wind Advisory
Issued: 3:17 PM CST Jan. 21, 2017 – National Weather Service

... Wind Advisory now in effect until 6 PM CST Sunday...

* timing... until 6 PM CST Sunday.

* Winds... west to southwest winds becoming northwest on Sunday
morning. Sustained winds of 20 to 30 mph with gusts in excess of
35 mph possible.

* Impacts... these winds will blow around loose items such as
trash cans and patio furniture. Winds will also make open
waters of area lakes choppy and dangerous. Strong Crosswinds
will pose a hazard to high-profile vehicles traveling on
north- south oriented highways.

Precautionary/preparedness actions...

A Wind Advisory means that sustained winds of at least 20 to
30 mph are expected. Winds this strong can make driving
difficult... especially for high profile vehicles. Boaters should
use extra caution when venturing onto area lakes. Residents may
wish to take action to secure trash cans... lawn furniture... and
other lightweight outdoor objects that may be blown around in the
strong winds.



Stalley